Main page
METAR-TAF:

METAR-TAF

Airports :

Arlington Municipal Airport

Arlington, Texas, United States

latitude: 32-39-50N, longitude: 097-05-45W, elevation: 630 ft

Current weather observation

The report was made 57 minutes ago, at 04:53 UTC
Calm wind
Temperature 81°F
Humidity 62%
Pressure 29.96 in. Hg
Visibility: 10 miles
Clear sky

METAR: KGKY 140453Z AUTO 00000KT 10SM CLR 27/19 A2996 RMK AO2 SLP135 T02670194

Time: 00:50 (05:50 UTC)

Forecast

The report was made 30 minutes ago, at 05:20 UTC
Forecast valid from 14 at 06 UTC to 15 at 06 UTC
Wind 9 mph from the South/Southeast
Visibility: 6 miles
Few clouds at a height of 25000 ft

TAF: KGKY 140520Z 1406/1506 15008KT P6SM FEW250

Weather observations and forecasts of more than 4000 airports (METAR and TAF reports).

The available stations are represented by yellow and red dots on the map.

Hover mouse over dot to see the name of the station.

Then click to see weather observations and forecasts.

To change the map : click on the green buttons with a black cross to zoom in, on the green button with a dash to zoom out, or on the green arrows for adjacent maps.


METAR-TAF: